Accueil
METAR-TAF:

METAR-TAF

Aéroports :

Aéroport d'Helsinki-Vantaa

Helsinki, Finlande

latitude: 60-19N, longitude: 024-58E, altitude: 51 m

Observation

Le bulletin a été fait il y a 14 minutes, à 16:20 UTC
Vent 11 kt de sud-est
Température 5°C
Humidité 70%
Pression 1032 hPa
Visibilité 10 km ou plus
Nuages fragmentés à une hauteur de 2300 ft

METAR: EFHK 211620Z 14011KT 9999 BKN023 05/M00 Q1032 NOSIG

Heure: 18:34 (16:34 UTC)

Prévision

Le bulletin a été fait il y a 2 heures et 33 minutes, à 14:01 UTC
Prévision valable du 21 à 15 UTC au 22 à 15 UTC
Vent 12 kt de sud-est
Visibilité 10 km ou plus
Nuages fragmentés à une hauteur de 2500 ft

TAF: EFHK 211401Z 2115/2215 13012KT 9999 BKN025

Observations et prévisions météorologiques de plus de 4000 aéroports (messages METAR et TAF).

Les stations disponibles sont représentées par des disques jaunes et rouges sur la carte.

Passer la souris dessus pour voir le nom de la station.

Cliquer dessus pour voir les observations et prévisions météorologiques.

Pour changer de carte: cliquez sur les boutons verts avec une croix noire pour zoomer, sur le bouton vert avec un tiret pour effectuer un zoom arrière, ou sur les flèches vertes pour les cartes adjacentes.


METAR-TAF: